createdAt,value
2019-04-07T00:01:43.490Z,99759.09
2019-04-07T00:04:12.113Z,99762.91
2019-04-07T00:06:40.431Z,99755.70
2019-04-07T00:09:08.655Z,99761.11
2019-04-07T00:11:36.915Z,99759.17
2019-04-07T00:14:05.637Z,99755.76
2019-04-07T00:16:33.994Z,99754.77
2019-04-07T00:19:02.165Z,99747.00
2019-04-07T00:21:30.408Z,99755.56
2019-04-07T00:23:58.639Z,99756.56
2019-04-07T00:26:26.857Z,99755.50
2019-04-07T00:28:55.079Z,99749.08
2019-04-07T00:31:23.975Z,99745.91
2019-04-07T00:33:52.187Z,99744.67
2019-04-07T00:36:20.596Z,99740.23
2019-04-07T00:38:48.951Z,99739.63
2019-04-07T00:41:17.240Z,99742.81
2019-04-07T00:43:45.997Z,99740.98
2019-04-07T00:46:14.370Z,99743.45
2019-04-07T00:48:42.600Z,99742.13
2019-04-07T00:51:11.184Z,99733.91
2019-04-07T00:53:39.438Z,99736.93
2019-04-07T00:56:08.263Z,99728.78
2019-04-07T00:58:36.935Z,99731.44
2019-04-07T01:01:06.360Z,99735.41
2019-04-07T01:03:34.925Z,99731.20
2019-04-07T01:06:03.410Z,99738.09
2019-04-07T01:08:31.675Z,99733.44
2019-04-07T01:10:59.880Z,99740.41
2019-04-07T01:13:28.099Z,99739.86
2019-04-07T01:15:57.139Z,99741.16
2019-04-07T01:18:26.970Z,99744.07
2019-04-07T01:20:55.391Z,99740.54
2019-04-07T01:23:23.634Z,99735.67
2019-04-07T01:25:52.252Z,99736.75
2019-04-07T01:28:20.876Z,99736.43
2019-04-07T01:30:49.160Z,99735.23
2019-04-07T01:33:17.467Z,99734.42
2019-04-07T01:35:48.675Z,99734.89
2019-04-07T01:38:15.595Z,99735.53
2019-04-07T01:40:45.469Z,99738.95
2019-04-07T01:43:27.302Z,99746.00
2019-04-07T01:45:57.234Z,99746.48
2019-04-07T01:48:33.288Z,99742.95
2019-04-07T01:51:09.123Z,99745.89
2019-04-07T01:53:42.057Z,99745.28
2019-04-07T01:56:11.915Z,99741.56
2019-04-07T01:58:53.603Z,99739.10
2019-04-07T02:01:33.886Z,99738.06
2019-04-07T02:04:13.035Z,99737.27
2019-04-07T02:06:46.354Z,99736.47
2019-04-07T02:09:25.692Z,99734.23
2019-04-07T02:12:12.613Z,99735.69
2019-04-07T02:14:45.568Z,99742.52
2019-04-07T02:17:17.881Z,99739.72
2019-04-07T02:19:50.421Z,99735.47
2019-04-07T02:22:26.349Z,99739.58
2019-04-07T02:25:02.204Z,99743.10
2019-04-07T02:27:44.678Z,99742.30
2019-04-07T02:30:23.712Z,99739.28
2019-04-07T02:32:56.089Z,99737.91
2019-04-07T02:35:28.844Z,99736.28
2019-04-07T02:38:00.543Z,99736.89
2019-04-07T02:40:42.711Z,99739.14
2019-04-07T02:43:15.934Z,99741.67
2019-04-07T02:45:45.836Z,99735.89
2019-04-07T02:48:32.088Z,99738.45
2019-04-07T02:51:05.651Z,99737.61
2019-04-07T02:53:43.560Z,99742.31
2019-04-07T02:56:13.505Z,99738.93
2019-04-07T02:58:44.305Z,99740.27
2019-04-07T03:01:14.329Z,99743.91
2019-04-07T03:03:46.370Z,99741.87
2019-04-07T03:06:37.667Z,99749.97
2019-04-07T03:09:09.634Z,99747.97
2019-04-07T03:11:40.404Z,99749.47
2019-04-07T03:14:14.236Z,99752.38
2019-04-07T03:16:53.384Z,99750.47
2019-04-07T03:19:29.877Z,99750.97
2019-04-07T03:22:00.706Z,99755.88
2019-04-07T03:24:40.447Z,99760.70
2019-04-07T03:27:13.665Z,99766.52
2019-04-07T03:30:00.738Z,99763.33
2019-04-07T03:32:42.893Z,99762.08
2019-04-07T03:35:12.646Z,99775.72
2019-04-07T03:37:46.514Z,99775.62
2019-04-07T03:40:26.841Z,99776.59
2019-04-07T03:42:57.400Z,99771.25
2019-04-07T03:45:30.498Z,99771.28
2019-04-07T03:48:08.463Z,99766.13
2019-04-07T03:50:41.187Z,99771.03
2019-04-07T03:53:17.960Z,99761.89
2019-04-07T03:56:04.276Z,99761.95
2019-04-07T03:58:37.598Z,99759.45
2019-04-07T04:01:25.676Z,99758.06
2019-04-07T04:04:11.968Z,99765.89
2019-04-07T04:06:51.510Z,99763.83
2019-04-07T04:09:24.440Z,99768.72
2019-04-07T04:11:54.319Z,99771.00
2019-04-07T04:14:29.910Z,99768.20
2019-04-07T04:16:58.191Z,99771.13
2019-04-07T04:19:27.545Z,99776.25
2019-04-07T04:21:56.380Z,99780.11
2019-04-07T04:24:24.606Z,99782.63
2019-04-07T04:26:53.779Z,99786.73
2019-04-07T04:29:23.165Z,99783.72
2019-04-07T04:31:52.614Z,99780.51
2019-04-07T04:34:21.121Z,99781.66
2019-04-07T04:36:50.246Z,99773.84
2019-04-07T04:39:20.060Z,99775.16
2019-04-07T04:41:49.010Z,99776.17
2019-04-07T04:44:18.625Z,99776.38
2019-04-07T04:46:47.406Z,99778.38
2019-04-07T04:49:15.664Z,99772.27
2019-04-07T04:51:44.402Z,99776.09
2019-04-07T04:54:12.731Z,99780.58
2019-04-07T04:56:41.437Z,99781.62
2019-04-07T04:59:09.752Z,99789.52
2019-04-07T05:01:38.117Z,99791.00
2019-04-07T05:04:06.359Z,99789.50
2019-04-07T05:06:34.570Z,99797.73
2019-04-07T05:09:04.568Z,99796.02
2019-04-07T05:11:32.827Z,99791.30
2019-04-07T05:14:01.052Z,99802.56
2019-04-07T05:16:29.334Z,99799.28
2019-04-07T05:18:57.551Z,99798.55
2019-04-07T05:21:26.192Z,99804.92
2019-04-07T05:23:54.974Z,99812.67
2019-04-07T05:28:55.035Z,99804.98
2019-04-07T05:31:24.646Z,99800.42
2019-04-07T05:33:53.886Z,99809.20
2019-04-07T05:37:08.715Z,99798.95
2019-04-07T05:39:37.253Z,99809.44
2019-04-07T05:42:05.511Z,99809.30
2019-04-07T05:44:34.368Z,99808.27
2019-04-07T05:47:02.908Z,99809.46
2019-04-07T05:49:31.402Z,99814.22
2019-04-07T05:52:04.203Z,99815.91
2019-04-07T05:54:29.657Z,99824.08
2019-04-07T05:57:01.396Z,99830.94
2019-04-07T05:59:28.909Z,99716.61
2019-04-07T06:02:00.660Z,99831.27
2019-04-07T06:04:27.130Z,99840.97
2019-04-07T06:06:56.365Z,99842.16
2019-04-07T06:09:25.135Z,99842.90
2019-04-07T06:11:53.505Z,99852.03
2019-04-07T06:14:21.734Z,99846.84
2019-04-07T06:16:53.527Z,99848.22
2019-04-07T06:19:26.061Z,99851.45
2019-04-07T06:21:54.310Z,99840.72
2019-04-07T06:24:22.701Z,99851.08
2019-04-07T06:26:53.366Z,99850.84
2019-04-07T06:29:24.683Z,99851.55
2019-04-07T06:31:53.945Z,99849.92
2019-04-07T06:34:22.643Z,99848.97
2019-04-07T06:36:54.145Z,99853.18
2019-04-07T06:39:21.527Z,99692.34
2019-04-07T06:41:49.846Z,99860.95
2019-04-07T06:44:20.917Z,99851.58
2019-04-07T06:46:57.918Z,99850.97
2019-04-07T06:49:27.847Z,99851.20
2019-04-07T06:52:00.789Z,99852.70
2019-04-07T06:54:37.720Z,99856.84
2019-04-07T06:57:12.868Z,99855.66
2019-04-07T06:59:45.957Z,99861.48
2019-04-07T07:02:14.355Z,99866.36
2019-04-07T07:04:53.943Z,99862.66
2019-04-07T07:07:30.094Z,99864.98
2019-04-07T07:10:01.001Z,99871.53
2019-04-07T07:12:46.175Z,99863.33
2019-04-07T07:15:25.575Z,99862.16
2019-04-07T07:18:01.325Z,99867.78
2019-04-07T07:20:33.964Z,99868.38
2019-04-07T07:23:10.186Z,99867.30
2019-04-07T07:25:39.853Z,99867.53
2019-04-07T07:28:10.751Z,99874.20
2019-04-07T07:30:38.259Z,99869.73
2019-04-07T07:33:09.659Z,99870.87
2019-04-07T07:35:36.450Z,99870.11
2019-04-07T07:38:04.948Z,99866.84
2019-04-07T07:40:34.946Z,99870.84
2019-04-07T07:43:03.518Z,99869.75
2019-04-07T07:45:31.788Z,99867.71
2019-04-07T07:48:00.036Z,99871.78
2019-04-07T07:50:28.475Z,99866.28
2019-04-07T07:52:59.155Z,99870.38
2019-04-07T07:55:28.525Z,99870.99
2019-04-07T07:57:59.205Z,99867.91
2019-04-07T08:00:41.565Z,99864.44
2019-04-07T08:03:10.750Z,99866.58
2019-04-07T08:05:39.718Z,99868.53
2019-04-07T08:08:08.248Z,99867.02
2019-04-07T08:10:37.559Z,99863.52
2019-04-07T08:13:09.046Z,99866.19
2019-04-07T08:15:37.395Z,99870.52
2019-04-07T08:18:07.623Z,99863.95
2019-04-07T08:21:12.475Z,99870.23
2019-04-07T08:23:43.034Z,99869.58
2019-04-07T08:26:11.663Z,99870.45
2019-04-07T08:28:40.324Z,99876.28
2019-04-07T08:31:08.551Z,99878.65
2019-04-07T08:33:37.430Z,99878.13
2019-04-07T08:36:08.982Z,99878.45
2019-04-07T08:38:38.399Z,99882.31
2019-04-07T08:41:10.164Z,99881.83
2019-04-07T08:43:37.319Z,99887.78
2019-04-07T08:46:06.123Z,99889.35
2019-04-07T08:48:34.559Z,99886.80
2019-04-07T08:51:03.467Z,99889.84
2019-04-07T08:53:31.919Z,99884.88
2019-04-07T08:56:00.341Z,99892.29
2019-04-07T08:58:30.081Z,99890.98
2019-04-07T09:00:58.605Z,99888.42
2019-04-07T09:03:26.799Z,99895.07
2019-04-07T09:05:57.370Z,99895.67
2019-04-07T09:08:25.015Z,99895.44
2019-04-07T09:11:10.093Z,99892.66
2019-04-07T09:13:41.409Z,99880.53
2019-04-07T09:16:28.034Z,99886.09
2019-04-07T09:19:03.837Z,99888.32
2019-04-07T09:21:41.397Z,99886.02
2019-04-07T09:24:10.133Z,99887.08
2019-04-07T09:26:56.308Z,99890.39
2019-04-07T09:29:42.022Z,99887.44
2019-04-07T09:32:29.081Z,99891.80
2019-04-07T09:35:02.059Z,99894.44
2019-04-07T09:37:32.367Z,99897.69
2019-04-07T09:40:04.403Z,99894.27
2019-04-07T09:42:46.698Z,99893.47
2019-04-07T09:45:25.446Z,99892.59
2019-04-07T09:48:00.763Z,99902.55
2019-04-07T09:50:33.654Z,99900.00
2019-04-07T09:53:06.541Z,99896.84
2019-04-07T09:55:36.781Z,99899.26
2019-04-07T09:58:22.850Z,99902.49
2019-04-07T10:01:06.925Z,99901.80
2019-04-07T10:03:38.136Z,99901.55
2019-04-07T10:06:10.774Z,99893.79
2019-04-07T10:08:57.114Z,99889.28
2019-04-07T10:11:30.275Z,99887.80
2019-04-07T10:14:18.544Z,99890.83
2019-04-07T10:16:48.482Z,99894.35
2019-04-07T10:19:20.114Z,99894.81
2019-04-07T10:21:56.075Z,99893.95
2019-04-07T10:24:26.158Z,99901.80
2019-04-07T10:27:12.530Z,99906.09
2019-04-07T10:29:52.433Z,99892.30
2019-04-07T10:32:39.569Z,99896.95
2019-04-07T10:35:09.423Z,99901.39
2019-04-07T10:37:51.018Z,99904.64
2019-04-07T10:40:23.355Z,99899.70
2019-04-07T10:43:02.011Z,99898.84
2019-04-07T10:45:35.079Z,99905.47
2019-04-07T10:48:24.472Z,99897.48
2019-04-07T10:51:10.675Z,99901.02
2019-04-07T10:53:47.193Z,99895.37
2019-04-07T10:56:20.916Z,99885.12
2019-04-07T10:58:51.799Z,99888.39
2019-04-07T11:01:22.177Z,99891.08
2019-04-07T11:03:53.996Z,99879.34
2019-04-07T11:06:28.398Z,99888.58
2019-04-07T11:09:01.035Z,99885.25
2019-04-07T11:11:33.626Z,99888.58
2019-04-07T11:14:12.295Z,99884.17
2019-04-07T11:16:46.294Z,99879.45
2019-04-07T11:19:17.697Z,99879.86
2019-04-07T11:21:50.407Z,99872.98
2019-04-07T11:24:32.267Z,99878.98
2019-04-07T11:27:03.566Z,99880.29
2019-04-07T11:29:38.543Z,99874.88
2019-04-07T11:32:10.749Z,99875.33
2019-04-07T11:34:43.605Z,99873.09
2019-04-07T11:37:17.968Z,99873.80
2019-04-07T11:39:50.341Z,99874.00
2019-04-07T11:42:23.020Z,99866.38
2019-04-07T11:44:59.634Z,99874.48
2019-04-07T11:47:32.933Z,99870.48
2019-04-07T11:50:09.378Z,99868.09
2019-04-07T11:52:45.248Z,99863.95
2019-04-07T11:55:18.412Z,99863.33
2019-04-07T11:58:10.734Z,99872.02
2019-04-07T12:00:43.424Z,99862.11
2019-04-07T12:03:26.036Z,99860.27
2019-04-07T12:06:05.449Z,99862.89
2019-04-07T12:08:44.599Z,99875.96
2019-04-07T12:11:26.604Z,99863.02
2019-04-07T12:14:15.981Z,99860.83
2019-04-07T12:17:06.974Z,99870.44
2019-04-07T12:19:34.219Z,99863.01
2019-04-07T12:22:10.451Z,99858.14
2019-04-07T12:24:57.476Z,99863.36
2019-04-07T12:27:28.409Z,99861.06
2019-04-07T12:29:58.251Z,99859.82
2019-04-07T12:32:40.281Z,99861.99
2019-04-07T12:35:19.489Z,99862.95
2019-04-07T12:37:50.217Z,99863.66
2019-04-07T12:40:25.958Z,99870.81
2019-04-07T12:43:12.120Z,99859.28
2019-04-07T12:45:39.376Z,99863.01
2019-04-07T12:48:11.929Z,99869.77
2019-04-07T12:50:42.622Z,99861.44
2019-04-07T12:53:19.689Z,99865.45
2019-04-07T12:56:02.508Z,99859.72
2019-04-07T12:58:49.046Z,99859.93
2019-04-07T13:01:31.695Z,99859.41
2019-04-07T13:04:17.916Z,99864.98
2019-04-07T13:06:50.903Z,99854.79
2019-04-07T13:09:32.341Z,99869.98
2019-04-07T13:12:04.558Z,99853.09
2019-04-07T13:14:47.521Z,99855.47
2019-04-07T13:17:31.443Z,99854.61
2019-04-07T13:19:58.800Z,99850.48
2019-04-07T13:22:45.597Z,99852.20
2019-04-07T13:25:21.596Z,99844.34
2019-04-07T13:27:56.610Z,99846.92
2019-04-07T13:30:32.622Z,99842.66
2019-04-07T13:33:26.336Z,99834.84
2019-04-07T13:35:53.600Z,99841.34
2019-04-07T13:38:23.972Z,99844.42
2019-04-07T13:41:03.017Z,99848.50
2019-04-07T13:43:34.902Z,99849.41
2019-04-07T13:46:17.517Z,99851.94
2019-04-07T13:48:49.669Z,99724.86
2019-04-07T13:51:23.619Z,99842.89
2019-04-07T13:53:53.531Z,99834.30
2019-04-07T13:56:23.370Z,99836.32
2019-04-07T13:58:53.240Z,99841.77
2019-04-07T14:01:26.746Z,99836.63
2019-04-07T14:04:14.580Z,99832.74
2019-04-07T14:06:59.521Z,99830.34
2019-04-07T14:09:45.209Z,99838.52
2019-04-07T14:12:21.635Z,99831.22
2019-04-07T14:14:57.051Z,99839.76
2019-04-07T14:17:41.893Z,99833.73
2019-04-07T14:20:26.980Z,99837.70
2019-04-07T14:23:08.919Z,99838.05
2019-04-07T14:25:49.399Z,99758.32
2019-04-07T14:28:26.612Z,99827.69
2019-04-07T14:31:11.261Z,99825.41
2019-04-07T14:33:59.304Z,99827.88
2019-04-07T14:36:38.800Z,99817.55
2019-04-07T14:39:12.883Z,99824.92
2019-04-07T14:41:47.218Z,99827.03
2019-04-07T14:44:38.727Z,99813.73
2019-04-07T14:47:08.861Z,99824.17
2019-04-07T14:49:38.740Z,99825.76
2019-04-07T14:52:21.017Z,99828.42
2019-04-07T14:55:06.420Z,99822.50
2019-04-07T14:57:39.082Z,99825.17
2019-04-07T15:00:14.138Z,99825.55
2019-04-07T15:02:49.899Z,99823.36
2019-04-07T15:05:25.253Z,99825.81
2019-04-07T15:07:57.649Z,99820.73
2019-04-07T15:10:25.441Z,99826.23
2019-04-07T15:13:01.882Z,99826.22
2019-04-07T15:15:30.388Z,99827.56
2019-04-07T15:17:58.791Z,99825.80
2019-04-07T15:20:27.135Z,99826.83
2019-04-07T15:22:58.357Z,99822.05
2019-04-07T15:25:27.582Z,99824.75
2019-04-07T15:27:58.892Z,99820.13
2019-04-07T15:30:26.588Z,99822.48
2019-04-07T15:32:57.865Z,99825.63
2019-04-07T15:35:24.750Z,99824.82
2019-04-07T15:37:53.741Z,99821.05
2019-04-07T15:40:23.445Z,99823.10
2019-04-07T15:42:52.530Z,99822.57
2019-04-07T15:45:21.619Z,99824.11
2019-04-07T15:47:52.903Z,99827.63
2019-04-07T15:50:29.282Z,99825.48
2019-04-07T15:52:56.379Z,99830.82
2019-04-07T15:55:37.122Z,99834.91
2019-04-07T15:57:57.303Z,99832.31
2019-04-07T16:00:25.858Z,99844.73
2019-04-07T16:02:54.862Z,99839.07
2019-04-07T16:05:23.174Z,99846.63
2019-04-07T16:07:53.659Z,99843.70
2019-04-07T16:10:23.453Z,99846.48
2019-04-07T16:12:53.600Z,99840.58
2019-04-07T16:15:21.603Z,99846.37
2019-04-07T16:17:50.258Z,99844.28
2019-04-07T16:20:23.312Z,99841.77
2019-04-07T16:22:51.106Z,99846.20
2019-04-07T16:25:18.522Z,99851.14
2019-04-07T16:27:47.631Z,99858.67
2019-04-07T16:30:18.960Z,99855.23
2019-04-07T16:32:46.766Z,99853.70
2019-04-07T16:35:16.577Z,99855.61
2019-04-07T16:37:45.758Z,99859.65
2019-04-07T16:40:14.732Z,99852.22
2019-04-07T16:42:48.888Z,99865.69
2019-04-07T16:45:16.429Z,99863.99
2019-04-07T16:47:43.388Z,99864.49
2019-04-07T16:50:12.209Z,99876.82
2019-04-07T16:52:40.505Z,99876.84
2019-04-07T16:55:28.286Z,99877.91
2019-04-07T16:57:59.414Z,99874.52
2019-04-07T17:00:28.014Z,99877.30
2019-04-07T17:02:56.905Z,99879.50
2019-04-07T17:05:26.755Z,99881.91
2019-04-07T17:07:56.882Z,99879.03
2019-04-07T17:10:32.395Z,99884.96
2019-04-07T17:12:59.517Z,99884.45
2019-04-07T17:15:27.378Z,99888.07
2019-04-07T17:17:55.929Z,99884.31
2019-04-07T17:20:27.874Z,99894.31
2019-04-07T17:22:54.211Z,99891.41
2019-04-07T17:25:22.897Z,99896.73
2019-04-07T17:27:51.921Z,99893.91
2019-04-07T17:30:23.201Z,99889.88
2019-04-07T17:32:52.133Z,99888.67
2019-04-07T17:35:21.333Z,99891.34
2019-04-07T17:37:50.004Z,99894.04
2019-04-07T17:40:20.111Z,99903.47
2019-04-07T17:42:52.789Z,99904.58
2019-04-07T17:45:23.587Z,99909.13
2019-04-07T17:47:57.062Z,99907.05
2019-04-07T17:50:44.253Z,99908.91
2019-04-07T17:53:21.904Z,99913.26
2019-04-07T17:55:51.466Z,99923.17
2019-04-07T17:58:22.174Z,99923.64
2019-04-07T18:00:52.130Z,99925.80
2019-04-07T18:03:47.586Z,99926.25
2019-04-07T18:06:31.290Z,99925.98
2019-04-07T18:09:19.691Z,99930.03
2019-04-07T18:11:55.026Z,99931.08
2019-04-07T18:14:47.890Z,99942.51
2019-04-07T18:17:17.752Z,99944.77
2019-04-07T18:19:59.243Z,99947.13
2019-04-07T18:22:45.077Z,99950.61
2019-04-07T18:25:18.321Z,99949.13
2019-04-07T18:27:53.319Z,99960.20
2019-04-07T18:30:25.863Z,99956.97
2019-04-07T18:33:02.733Z,99960.54
2019-04-07T18:35:33.175Z,99962.28
2019-04-07T18:38:03.167Z,99963.82
2019-04-07T18:40:38.620Z,99971.45
2019-04-07T18:43:23.504Z,99976.09
2019-04-07T18:45:55.849Z,99982.02
2019-04-07T18:48:43.579Z,99982.22
2019-04-07T18:51:23.158Z,99988.11
2019-04-07T18:54:04.178Z,99992.14
2019-04-07T18:56:50.659Z,99995.38
2019-04-07T18:59:29.768Z,99998.31
2019-04-07T19:02:16.689Z,100001.12
2019-04-07T19:04:46.583Z,100008.80
2019-04-07T19:07:17.282Z,100014.11
2019-04-07T19:10:09.792Z,100009.21
2019-04-07T19:12:31.809Z,100017.16
2019-04-07T19:15:36.323Z,100019.24
2019-04-07T19:18:16.362Z,100014.52
2019-04-07T19:20:52.043Z,100021.18
2019-04-07T19:23:28.539Z,100022.39
2019-04-07T19:26:18.117Z,100027.58
2019-04-07T19:28:48.608Z,100028.98
2019-04-07T19:31:19.903Z,100029.58
2019-04-07T19:33:56.649Z,100030.03
2019-04-07T19:36:45.023Z,100028.16
2019-04-07T19:39:12.418Z,100032.67
2019-04-07T19:41:51.532Z,100038.91
2019-04-07T19:44:41.297Z,100034.96
2019-04-07T19:47:09.162Z,100037.98
2019-04-07T19:49:39.322Z,100040.96
2019-04-07T19:52:09.791Z,100041.14
2019-04-07T19:54:47.119Z,100043.61
2019-04-07T19:57:13.788Z,100046.43
2019-04-07T19:59:53.580Z,100043.87
2019-04-07T20:02:35.975Z,100046.52
2019-04-07T20:05:08.885Z,100050.83
2019-04-07T20:07:39.634Z,100057.06
2019-04-07T20:10:28.214Z,100050.03
2019-04-07T20:13:05.530Z,100050.41
2019-04-07T20:15:40.170Z,100053.58
2019-04-07T20:18:10.351Z,100047.48
2019-04-07T20:20:43.268Z,100055.41
2019-04-07T20:23:32.856Z,100055.92
2019-04-07T20:26:08.391Z,100059.99
2019-04-07T20:28:45.051Z,100063.34
2019-04-07T20:31:31.252Z,100060.87
2019-04-07T20:34:07.664Z,100065.88
2019-04-07T20:36:40.908Z,100069.34
2019-04-07T20:39:11.491Z,100071.81
2019-04-07T20:41:58.764Z,100068.70
2019-04-07T20:44:59.152Z,100070.67
2019-04-07T20:47:38.202Z,100076.02
2019-04-07T20:50:24.179Z,100069.90
2019-04-07T20:53:16.519Z,100064.62
2019-04-07T20:55:42.812Z,100068.20
2019-04-07T20:58:22.095Z,100066.19
2019-04-07T21:00:58.349Z,100064.52
2019-04-07T21:03:36.951Z,100061.83
2019-04-07T21:06:16.811Z,100058.13
2019-04-07T21:09:03.772Z,100056.39
2019-04-07T21:11:49.956Z,100056.34
2019-04-07T21:14:20.758Z,100061.58
2019-04-07T21:16:59.394Z,100063.45
2019-04-07T21:19:36.515Z,100054.20
2019-04-07T21:22:22.825Z,100063.11
2019-04-07T21:25:11.440Z,100064.11
2019-04-07T21:27:44.412Z,100065.19
2019-04-07T21:30:20.734Z,100074.11
2019-04-07T21:33:07.821Z,100074.59
2019-04-07T21:35:52.650Z,100075.16
2019-04-07T21:38:24.500Z,100083.83
2019-04-07T21:40:54.167Z,100081.19
2019-04-07T21:43:36.091Z,100078.16
2019-04-07T21:46:11.690Z,100075.67
2019-04-07T21:49:00.341Z,100079.38
2019-04-07T21:51:33.233Z,100082.30
2019-04-07T21:54:04.419Z,100090.02
2019-04-07T21:56:52.046Z,100086.62
2019-04-07T21:59:37.435Z,100066.66
2019-04-07T22:02:11.405Z,100095.42
2019-04-07T22:04:50.672Z,100103.30
2019-04-07T22:07:35.524Z,100101.20
2019-04-07T22:10:10.298Z,100103.14
2019-04-07T22:12:40.776Z,100112.38
2019-04-07T22:15:13.456Z,100118.78
2019-04-07T22:17:39.715Z,100127.03
2019-04-07T22:20:08.848Z,100120.86
2019-04-07T22:22:37.090Z,100128.22
2019-04-07T22:25:08.661Z,100123.04
2019-04-07T22:27:36.969Z,100126.08
2019-04-07T22:30:09.727Z,100134.19
2019-04-07T22:32:38.504Z,100130.53
2019-04-07T22:35:06.993Z,100146.55
2019-04-07T22:37:35.685Z,100147.19
2019-04-07T22:40:19.220Z,100151.05
2019-04-07T22:42:48.833Z,100152.20
2019-04-07T22:45:17.193Z,100152.56
2019-04-07T22:47:46.696Z,100148.53
2019-04-07T22:50:15.084Z,100155.22
2019-04-07T22:52:47.313Z,100157.77
2019-04-07T22:55:13.273Z,100156.73
2019-04-07T22:57:41.524Z,100155.83
2019-04-07T23:00:11.395Z,100158.79
2019-04-07T23:02:40.219Z,100160.21
2019-04-07T23:05:09.284Z,100153.80
2019-04-07T23:07:37.642Z,100153.08
2019-04-07T23:10:06.080Z,100154.84
2019-04-07T23:12:34.288Z,100158.30
2019-04-07T23:15:03.537Z,100159.18
2019-04-07T23:17:32.220Z,100163.47
2019-04-07T23:20:00.519Z,100165.09
2019-04-07T23:22:29.823Z,100166.44
2019-04-07T23:24:58.247Z,100163.01
2019-04-07T23:27:26.508Z,100165.41
2019-04-07T23:29:54.988Z,100168.77
2019-04-07T23:32:24.060Z,100168.88
2019-04-07T23:34:52.338Z,100170.53
2019-04-07T23:37:20.563Z,100172.59
2019-04-07T23:39:49.677Z,100177.22
2019-04-07T23:42:18.052Z,100177.94
2019-04-07T23:44:46.285Z,100177.83
2019-04-07T23:47:15.269Z,100169.56
2019-04-07T23:49:43.608Z,100174.72
2019-04-07T23:52:11.840Z,100170.59
2019-04-07T23:54:40.065Z,100171.66
2019-04-07T23:57:08.312Z,100176.59
2019-04-07T23:59:36.510Z,100183.27
